sensor_id;sensor_type;location;lat;lon;timestamp;P1;durP1;ratioP1;P2;durP2;ratioP2
44366;SDS011;30086;57.660;12.000;2023-02-11T00:01:05;27.45;;;4.70;;
44366;SDS011;30086;57.660;12.000;2023-02-11T00:03:32;42.08;;;7.38;;
44366;SDS011;30086;57.660;12.000;2023-02-11T00:05:58;31.60;;;6.72;;
44366;SDS011;30086;57.660;12.000;2023-02-11T00:08:24;35.40;;;5.80;;
44366;SDS011;30086;57.660;12.000;2023-02-11T00:10:54;47.15;;;9.73;;
44366;SDS011;30086;57.660;12.000;2023-02-11T00:13:21;41.17;;;7.47;;
44366;SDS011;30086;57.660;12.000;2023-02-11T00:15:47;57.22;;;11.15;;
44366;SDS011;30086;57.660;12.000;2023-02-11T00:18:13;29.45;;;4.97;;
44366;SDS011;30086;57.660;12.000;2023-02-11T00:20:39;46.38;;;9.50;;
44366;SDS011;30086;57.660;12.000;2023-02-11T00:23:06;41.88;;;9.38;;
44366;SDS011;30086;57.660;12.000;2023-02-11T00:25:32;20.05;;;3.20;;
44366;SDS011;30086;57.660;12.000;2023-02-11T00:27:58;23.02;;;4.22;;
44366;SDS011;30086;57.660;12.000;2023-02-11T00:30:24;39.22;;;5.55;;
44366;SDS011;30086;57.660;12.000;2023-02-11T00:32:50;54.20;;;6.88;;
44366;SDS011;30086;57.660;12.000;2023-02-11T00:35:16;44.33;;;8.15;;
44366;SDS011;30086;57.660;12.000;2023-02-11T00:37:42;29.50;;;6.18;;
44366;SDS011;30086;57.660;12.000;2023-02-11T00:40:08;30.77;;;6.93;;
44366;SDS011;30086;57.660;12.000;2023-02-11T00:42:35;38.00;;;7.63;;
44366;SDS011;30086;57.660;12.000;2023-02-11T00:45:01;38.00;;;6.70;;
44366;SDS011;30086;57.660;12.000;2023-02-11T00:47:27;43.08;;;8.68;;
44366;SDS011;30086;57.660;12.000;2023-02-11T00:49:53;40.42;;;6.85;;
44366;SDS011;30086;57.660;12.000;2023-02-11T00:52:19;37.42;;;8.18;;
44366;SDS011;30086;57.660;12.000;2023-02-11T00:54:45;37.00;;;9.98;;
44366;SDS011;30086;57.660;12.000;2023-02-11T00:57:11;36.85;;;7.05;;
44366;SDS011;30086;57.660;12.000;2023-02-11T00:59:37;42.40;;;8.63;;
44366;SDS011;30086;57.660;12.000;2023-02-11T01:02:04;25.10;;;4.85;;
44366;SDS011;30086;57.660;12.000;2023-02-11T01:04:30;34.22;;;6.00;;
44366;SDS011;30086;57.660;12.000;2023-02-11T01:06:56;38.80;;;9.18;;
44366;SDS011;30086;57.660;12.000;2023-02-11T01:09:22;43.97;;;8.02;;
44366;SDS011;30086;57.660;12.000;2023-02-11T01:11:48;25.85;;;5.40;;
44366;SDS011;30086;57.660;12.000;2023-02-11T01:14:14;35.55;;;8.57;;
44366;SDS011;30086;57.660;12.000;2023-02-11T01:16:40;38.15;;;6.40;;
44366;SDS011;30086;57.660;12.000;2023-02-11T01:19:07;45.67;;;9.30;;
44366;SDS011;30086;57.660;12.000;2023-02-11T01:21:33;37.50;;;6.93;;
44366;SDS011;30086;57.660;12.000;2023-02-11T01:23:59;46.83;;;9.15;;
44366;SDS011;30086;57.660;12.000;2023-02-11T01:26:25;41.65;;;9.15;;
44366;SDS011;30086;57.660;12.000;2023-02-11T01:28:51;15.75;;;4.38;;
44366;SDS011;30086;57.660;12.000;2023-02-11T01:31:17;13.05;;;3.25;;
44366;SDS011;30086;57.660;12.000;2023-02-11T01:33:43;36.40;;;6.95;;
44366;SDS011;30086;57.660;12.000;2023-02-11T01:36:09;40.15;;;6.40;;
44366;SDS011;30086;57.660;12.000;2023-02-11T01:38:36;40.97;;;7.70;;
44366;SDS011;30086;57.660;12.000;2023-02-11T01:41:05;20.40;;;3.80;;
44366;SDS011;30086;57.660;12.000;2023-02-11T01:43:33;39.30;;;6.35;;
44366;SDS011;30086;57.660;12.000;2023-02-11T01:48:49;35.60;;;7.05;;
44366;SDS011;30086;57.660;12.000;2023-02-11T01:51:59;32.42;;;4.75;;
44366;SDS011;30086;57.660;12.000;2023-02-11T01:54:06;34.72;;;5.70;;
44366;SDS011;30086;57.660;12.000;2023-02-11T01:56:53;25.52;;;4.90;;
44366;SDS011;30086;57.660;12.000;2023-02-11T02:03:16;28.88;;;4.40;;
44366;SDS011;30086;57.660;12.000;2023-02-11T02:05:29;34.08;;;6.82;;
44366;SDS011;30086;57.660;12.000;2023-02-11T02:10:23;39.70;;;6.25;;
44366;SDS011;30086;57.660;12.000;2023-02-11T02:12:50;20.40;;;3.80;;
44366;SDS011;30086;57.660;12.000;2023-02-11T02:15:17;23.63;;;4.60;;
44366;SDS011;30086;57.660;12.000;2023-02-11T02:20:51;33.05;;;6.10;;
44366;SDS011;30086;57.660;12.000;2023-02-11T02:25:58;43.78;;;10.32;;
44366;SDS011;30086;57.660;12.000;2023-02-11T02:36:04;50.67;;;10.98;;
44366;SDS011;30086;57.660;12.000;2023-02-11T02:41:15;53.83;;;9.88;;
44366;SDS011;30086;57.660;12.000;2023-02-11T02:43:43;32.05;;;6.15;;
44366;SDS011;30086;57.660;12.000;2023-02-11T02:48:36;49.17;;;8.70;;
44366;SDS011;30086;57.660;12.000;2023-02-11T02:53:57;46.72;;;7.45;;
44366;SDS011;30086;57.660;12.000;2023-02-11T02:59:07;30.73;;;5.70;;
44366;SDS011;30086;57.660;12.000;2023-02-11T03:04:29;42.55;;;5.60;;
44366;SDS011;30086;57.660;12.000;2023-02-11T03:09:33;61.80;;;11.32;;
44366;SDS011;30086;57.660;12.000;2023-02-11T03:12:02;35.83;;;6.00;;
44366;SDS011;30086;57.660;12.000;2023-02-11T03:14:28;39.47;;;9.82;;
44366;SDS011;30086;57.660;12.000;2023-02-11T03:16:55;39.22;;;6.07;;
44366;SDS011;30086;57.660;12.000;2023-02-11T03:19:24;58.17;;;9.88;;
44366;SDS011;30086;57.660;12.000;2023-02-11T03:21:51;51.38;;;10.48;;
44366;SDS011;30086;57.660;12.000;2023-02-11T03:24:19;32.22;;;5.65;;
44366;SDS011;30086;57.660;12.000;2023-02-11T03:26:56;37.28;;;7.85;;
44366;SDS011;30086;57.660;12.000;2023-02-11T03:34:18;47.90;;;9.18;;
44366;SDS011;30086;57.660;12.000;2023-02-11T03:39:28;34.53;;;6.45;;
44366;SDS011;30086;57.660;12.000;2023-02-11T03:41:56;57.80;;;7.65;;
44366;SDS011;30086;57.660;12.000;2023-02-11T03:44:24;61.83;;;10.57;;
44366;SDS011;30086;57.660;12.000;2023-02-11T03:46:53;47.08;;;6.10;;
44366;SDS011;30086;57.660;12.000;2023-02-11T03:49:20;48.15;;;7.57;;
44366;SDS011;30086;57.660;12.000;2023-02-11T03:51:47;59.33;;;12.52;;
44366;SDS011;30086;57.660;12.000;2023-02-11T03:54:15;31.48;;;5.97;;
44366;SDS011;30086;57.660;12.000;2023-02-11T03:56:53;44.80;;;8.93;;
44366;SDS011;30086;57.660;12.000;2023-02-11T03:59:19;39.35;;;6.28;;
44366;SDS011;30086;57.660;12.000;2023-02-11T04:01:46;47.15;;;7.70;;
44366;SDS011;30086;57.660;12.000;2023-02-11T04:04:12;48.30;;;8.20;;
44366;SDS011;30086;57.660;12.000;2023-02-11T04:06:38;47.92;;;9.07;;
44366;SDS011;30086;57.660;12.000;2023-02-11T04:09:04;28.77;;;4.50;;
44366;SDS011;30086;57.660;12.000;2023-02-11T04:11:30;44.60;;;8.38;;
44366;SDS011;30086;57.660;12.000;2023-02-11T04:13:56;39.17;;;8.07;;
44366;SDS011;30086;57.660;12.000;2023-02-11T04:16:22;34.75;;;6.32;;
44366;SDS011;30086;57.660;12.000;2023-02-11T04:18:49;45.67;;;8.05;;
44366;SDS011;30086;57.660;12.000;2023-02-11T04:21:15;29.48;;;6.07;;
44366;SDS011;30086;57.660;12.000;2023-02-11T04:23:41;41.72;;;7.05;;
44366;SDS011;30086;57.660;12.000;2023-02-11T04:26:07;37.97;;;7.05;;
44366;SDS011;30086;57.660;12.000;2023-02-11T04:28:33;36.08;;;7.63;;
44366;SDS011;30086;57.660;12.000;2023-02-11T04:31:00;20.65;;;3.45;;
44366;SDS011;30086;57.660;12.000;2023-02-11T04:33:26;20.98;;;3.75;;
44366;SDS011;30086;57.660;12.000;2023-02-11T04:35:52;35.30;;;5.70;;
44366;SDS011;30086;57.660;12.000;2023-02-11T04:38:18;18.90;;;4.70;;
44366;SDS011;30086;57.660;12.000;2023-02-11T04:40:44;36.03;;;6.47;;
44366;SDS011;30086;57.660;12.000;2023-02-11T04:43:10;37.38;;;6.85;;
44366;SDS011;30086;57.660;12.000;2023-02-11T04:45:36;41.47;;;6.72;;
44366;SDS011;30086;57.660;12.000;2023-02-11T04:48:02;38.30;;;7.03;;
44366;SDS011;30086;57.660;12.000;2023-02-11T04:50:29;35.30;;;6.72;;
44366;SDS011;30086;57.660;12.000;2023-02-11T04:52:55;43.97;;;6.93;;
44366;SDS011;30086;57.660;12.000;2023-02-11T04:55:21;45.42;;;7.85;;
44366;SDS011;30086;57.660;12.000;2023-02-11T04:57:47;21.63;;;3.78;;
44366;SDS011;30086;57.660;12.000;2023-02-11T05:00:13;57.85;;;11.07;;
44366;SDS011;30086;57.660;12.000;2023-02-11T05:02:39;44.78;;;6.63;;
44366;SDS011;30086;57.660;12.000;2023-02-11T05:05:05;46.55;;;8.18;;
44366;SDS011;30086;57.660;12.000;2023-02-11T05:07:31;37.78;;;6.25;;
44366;SDS011;30086;57.660;12.000;2023-02-11T05:09:57;56.97;;;9.18;;
44366;SDS011;30086;57.660;12.000;2023-02-11T05:12:23;60.60;;;10.38;;
44366;SDS011;30086;57.660;12.000;2023-02-11T05:14:50;11.85;;;3.67;;
44366;SDS011;30086;57.660;12.000;2023-02-11T05:17:16;19.95;;;4.40;;
44366;SDS011;30086;57.660;12.000;2023-02-11T05:19:45;23.13;;;5.03;;
44366;SDS011;30086;57.660;12.000;2023-02-11T05:22:11;55.13;;;10.10;;
44366;SDS011;30086;57.660;12.000;2023-02-11T05:24:37;66.32;;;10.23;;
44366;SDS011;30086;57.660;12.000;2023-02-11T05:27:03;53.38;;;8.43;;
44366;SDS011;30086;57.660;12.000;2023-02-11T05:29:29;37.47;;;4.68;;
44366;SDS011;30086;57.660;12.000;2023-02-11T05:31:57;40.40;;;4.78;;
44366;SDS011;30086;57.660;12.000;2023-02-11T05:34:23;27.38;;;5.35;;
44366;SDS011;30086;57.660;12.000;2023-02-11T05:36:49;55.83;;;11.43;;
44366;SDS011;30086;57.660;12.000;2023-02-11T05:39:15;23.80;;;4.88;;
44366;SDS011;30086;57.660;12.000;2023-02-11T05:41:41;64.93;;;9.80;;
44366;SDS011;30086;57.660;12.000;2023-02-11T05:44:07;58.28;;;8.05;;
44366;SDS011;30086;57.660;12.000;2023-02-11T05:46:34;16.67;;;4.40;;
44366;SDS011;30086;57.660;12.000;2023-02-11T05:49:00;53.08;;;6.35;;
44366;SDS011;30086;57.660;12.000;2023-02-11T05:51:26;57.03;;;8.40;;
44366;SDS011;30086;57.660;12.000;2023-02-11T05:53:52;32.42;;;4.28;;
44366;SDS011;30086;57.660;12.000;2023-02-11T05:56:18;54.47;;;8.82;;
44366;SDS011;30086;57.660;12.000;2023-02-11T05:58:44;60.50;;;9.52;;
44366;SDS011;30086;57.660;12.000;2023-02-11T06:01:10;56.92;;;7.82;;
44366;SDS011;30086;57.660;12.000;2023-02-11T06:03:36;48.42;;;8.90;;
44366;SDS011;30086;57.660;12.000;2023-02-11T06:06:02;45.50;;;7.60;;
44366;SDS011;30086;57.660;12.000;2023-02-11T06:08:29;47.42;;;7.93;;
44366;SDS011;30086;57.660;12.000;2023-02-11T06:10:55;46.08;;;7.18;;
44366;SDS011;30086;57.660;12.000;2023-02-11T06:13:21;30.25;;;6.15;;
44366;SDS011;30086;57.660;12.000;2023-02-11T06:15:57;38.60;;;10.05;;
44366;SDS011;30086;57.660;12.000;2023-02-11T06:18:24;19.40;;;4.07;;
44366;SDS011;30086;57.660;12.000;2023-02-11T06:20:50;28.20;;;5.55;;
44366;SDS011;30086;57.660;12.000;2023-02-11T06:23:17;45.72;;;8.15;;
44366;SDS011;30086;57.660;12.000;2023-02-11T06:25:43;37.15;;;4.82;;
44366;SDS011;30086;57.660;12.000;2023-02-11T06:28:09;40.67;;;5.40;;
44366;SDS011;30086;57.660;12.000;2023-02-11T06:30:36;51.53;;;6.72;;
44366;SDS011;30086;57.660;12.000;2023-02-11T06:33:02;31.20;;;6.25;;
44366;SDS011;30086;57.660;12.000;2023-02-11T06:35:28;33.03;;;4.90;;
44366;SDS011;30086;57.660;12.000;2023-02-11T06:37:54;54.33;;;8.45;;
44366;SDS011;30086;57.660;12.000;2023-02-11T06:40:20;34.17;;;5.25;;
44366;SDS011;30086;57.660;12.000;2023-02-11T06:42:46;56.67;;;8.23;;
44366;SDS011;30086;57.660;12.000;2023-02-11T06:45:12;40.53;;;4.97;;
44366;SDS011;30086;57.660;12.000;2023-02-11T06:47:38;25.40;;;3.83;;
44366;SDS011;30086;57.660;12.000;2023-02-11T06:50:05;34.13;;;5.60;;
44366;SDS011;30086;57.660;12.000;2023-02-11T06:52:32;48.65;;;7.05;;
44366;SDS011;30086;57.660;12.000;2023-02-11T06:54:58;46.40;;;6.93;;
44366;SDS011;30086;57.660;12.000;2023-02-11T06:57:24;29.48;;;5.85;;
44366;SDS011;30086;57.660;12.000;2023-02-11T06:59:50;18.25;;;2.97;;
44366;SDS011;30086;57.660;12.000;2023-02-11T07:02:16;33.85;;;6.43;;
44366;SDS011;30086;57.660;12.000;2023-02-11T07:04:42;31.05;;;5.70;;
44366;SDS011;30086;57.660;12.000;2023-02-11T07:07:08;33.30;;;3.83;;
44366;SDS011;30086;57.660;12.000;2023-02-11T07:09:34;23.63;;;2.92;;
44366;SDS011;30086;57.660;12.000;2023-02-11T07:12:00;15.15;;;3.17;;
44366;SDS011;30086;57.660;12.000;2023-02-11T07:14:26;24.83;;;5.80;;
44366;SDS011;30086;57.660;12.000;2023-02-11T07:16:52;23.92;;;5.13;;
44366;SDS011;30086;57.660;12.000;2023-02-11T07:19:18;34.47;;;6.03;;
44366;SDS011;30086;57.660;12.000;2023-02-11T07:21:44;35.55;;;6.10;;
44366;SDS011;30086;57.660;12.000;2023-02-11T07:24:12;12.65;;;3.13;;
44366;SDS011;30086;57.660;12.000;2023-02-11T07:26:38;25.92;;;4.35;;
44366;SDS011;30086;57.660;12.000;2023-02-11T07:29:04;22.95;;;4.57;;
44366;SDS011;30086;57.660;12.000;2023-02-11T07:31:31;25.52;;;3.47;;
44366;SDS011;30086;57.660;12.000;2023-02-11T07:33:58;22.85;;;4.57;;
44366;SDS011;30086;57.660;12.000;2023-02-11T07:36:24;25.98;;;4.20;;
44366;SDS011;30086;57.660;12.000;2023-02-11T07:38:50;15.32;;;2.45;;
44366;SDS011;30086;57.660;12.000;2023-02-11T07:41:18;20.23;;;3.65;;
44366;SDS011;30086;57.660;12.000;2023-02-11T07:43:44;7.82;;;1.85;;
44366;SDS011;30086;57.660;12.000;2023-02-11T07:46:12;15.50;;;3.30;;
44366;SDS011;30086;57.660;12.000;2023-02-11T07:48:39;17.48;;;3.03;;
44366;SDS011;30086;57.660;12.000;2023-02-11T07:51:12;15.68;;;3.92;;
44366;SDS011;30086;57.660;12.000;2023-02-11T07:53:39;15.88;;;3.67;;
44366;SDS011;30086;57.660;12.000;2023-02-11T07:56:06;18.45;;;3.03;;
44366;SDS011;30086;57.660;12.000;2023-02-11T07:58:32;10.15;;;2.53;;
44366;SDS011;30086;57.660;12.000;2023-02-11T08:00:59;17.20;;;3.33;;
44366;SDS011;30086;57.660;12.000;2023-02-11T08:03:26;20.98;;;4.18;;
44366;SDS011;30086;57.660;12.000;2023-02-11T08:05:52;20.50;;;2.88;;
44366;SDS011;30086;57.660;12.000;2023-02-11T08:08:18;12.38;;;2.10;;
44366;SDS011;30086;57.660;12.000;2023-02-11T08:10:44;13.18;;;2.08;;
44366;SDS011;30086;57.660;12.000;2023-02-11T08:13:10;13.02;;;2.25;;
44366;SDS011;30086;57.660;12.000;2023-02-11T08:15:37;22.08;;;3.90;;
44366;SDS011;30086;57.660;12.000;2023-02-11T08:18:03;15.27;;;3.20;;
44366;SDS011;30086;57.660;12.000;2023-02-11T08:20:29;8.70;;;2.00;;
44366;SDS011;30086;57.660;12.000;2023-02-11T08:22:55;17.67;;;2.85;;
44366;SDS011;30086;57.660;12.000;2023-02-11T08:25:21;12.40;;;1.95;;
44366;SDS011;30086;57.660;12.000;2023-02-11T08:27:47;25.35;;;3.72;;
44366;SDS011;30086;57.660;12.000;2023-02-11T08:30:13;9.73;;;2.03;;
44366;SDS011;30086;57.660;12.000;2023-02-11T08:32:39;11.38;;;1.65;;
44366;SDS011;30086;57.660;12.000;2023-02-11T08:35:05;12.85;;;2.08;;
44366;SDS011;30086;57.660;12.000;2023-02-11T08:37:32;14.93;;;2.60;;
44366;SDS011;30086;57.660;12.000;2023-02-11T08:39:58;11.10;;;2.35;;
44366;SDS011;30086;57.660;12.000;2023-02-11T08:42:24;13.65;;;3.05;;
44366;SDS011;30086;57.660;12.000;2023-02-11T08:44:50;20.52;;;3.78;;
44366;SDS011;30086;57.660;12.000;2023-02-11T08:47:16;4.32;;;1.23;;
44366;SDS011;30086;57.660;12.000;2023-02-11T08:49:42;15.52;;;2.33;;
44366;SDS011;30086;57.660;12.000;2023-02-11T08:52:08;14.00;;;2.10;;
44366;SDS011;30086;57.660;12.000;2023-02-11T08:54:34;4.80;;;1.20;;
44366;SDS011;30086;57.660;12.000;2023-02-11T08:57:01;15.00;;;2.03;;
44366;SDS011;30086;57.660;12.000;2023-02-11T08:59:28;17.15;;;3.25;;
44366;SDS011;30086;57.660;12.000;2023-02-11T09:01:54;6.13;;;1.58;;
44366;SDS011;30086;57.660;12.000;2023-02-11T09:04:21;14.48;;;2.47;;
44366;SDS011;30086;57.660;12.000;2023-02-11T09:06:47;7.97;;;1.65;;
44366;SDS011;30086;57.660;12.000;2023-02-11T09:09:14;11.95;;;2.80;;
44366;SDS011;30086;57.660;12.000;2023-02-11T09:11:41;27.13;;;4.00;;
44366;SDS011;30086;57.660;12.000;2023-02-11T09:14:07;13.95;;;2.53;;
44366;SDS011;30086;57.660;12.000;2023-02-11T09:16:36;25.30;;;4.20;;
44366;SDS011;30086;57.660;12.000;2023-02-11T09:19:02;5.18;;;1.00;;
44366;SDS011;30086;57.660;12.000;2023-02-11T09:21:29;12.68;;;1.80;;
44366;SDS011;30086;57.660;12.000;2023-02-11T09:23:55;17.33;;;2.85;;
44366;SDS011;30086;57.660;12.000;2023-02-11T09:26:22;13.90;;;3.15;;
44366;SDS011;30086;57.660;12.000;2023-02-11T09:28:48;16.83;;;3.28;;
44366;SDS011;30086;57.660;12.000;2023-02-11T09:31:16;16.00;;;2.80;;
44366;SDS011;30086;57.660;12.000;2023-02-11T09:33:44;12.80;;;2.83;;
44366;SDS011;30086;57.660;12.000;2023-02-11T09:36:14;17.67;;;2.55;;
44366;SDS011;30086;57.660;12.000;2023-02-11T09:38:41;12.10;;;2.72;;
44366;SDS011;30086;57.660;12.000;2023-02-11T09:43:57;22.92;;;2.90;;
44366;SDS011;30086;57.660;12.000;2023-02-11T09:46:24;22.98;;;3.67;;
44366;SDS011;30086;57.660;12.000;2023-02-11T09:48:52;21.35;;;4.18;;
44366;SDS011;30086;57.660;12.000;2023-02-11T09:51:21;22.98;;;3.70;;
44366;SDS011;30086;57.660;12.000;2023-02-11T09:53:52;17.98;;;3.50;;
44366;SDS011;30086;57.660;12.000;2023-02-11T09:56:21;23.92;;;4.03;;
44366;SDS011;30086;57.660;12.000;2023-02-11T09:58:47;20.08;;;3.33;;
44366;SDS011;30086;57.660;12.000;2023-02-11T10:19:30;13.38;;;2.30;;
44366;SDS011;30086;57.660;12.000;2023-02-11T10:24:32;18.88;;;4.18;;
44366;SDS011;30086;57.660;12.000;2023-02-11T10:26:58;19.17;;;3.08;;
44366;SDS011;30086;57.660;12.000;2023-02-11T10:29:29;16.65;;;2.80;;
44366;SDS011;30086;57.660;12.000;2023-02-11T10:31:56;6.90;;;2.33;;
44366;SDS011;30086;57.660;12.000;2023-02-11T10:34:24;21.05;;;4.75;;
44366;SDS011;30086;57.660;12.000;2023-02-11T10:36:50;21.13;;;3.22;;
44366;SDS011;30086;57.660;12.000;2023-02-11T10:39:17;15.85;;;3.78;;
44366;SDS011;30086;57.660;12.000;2023-02-11T10:41:53;8.23;;;2.53;;
44366;SDS011;30086;57.660;12.000;2023-02-11T10:44:24;26.48;;;4.32;;
44366;SDS011;30086;57.660;12.000;2023-02-11T10:46:51;20.00;;;3.33;;
44366;SDS011;30086;57.660;12.000;2023-02-11T10:54:38;16.33;;;3.55;;
44366;SDS011;30086;57.660;12.000;2023-02-11T10:57:04;21.92;;;3.55;;
44366;SDS011;30086;57.660;12.000;2023-02-11T11:02:03;16.70;;;3.63;;
44366;SDS011;30086;57.660;12.000;2023-02-11T11:04:43;13.65;;;2.97;;
44366;SDS011;30086;57.660;12.000;2023-02-11T11:07:23;11.20;;;2.13;;
44366;SDS011;30086;57.660;12.000;2023-02-11T11:17:42;30.42;;;3.92;;
44366;SDS011;30086;57.660;12.000;2023-02-11T11:20:27;22.33;;;4.47;;
44366;SDS011;30086;57.660;12.000;2023-02-11T11:23:17;15.43;;;3.40;;
44366;SDS011;30086;57.660;12.000;2023-02-11T11:25:43;17.58;;;3.78;;
44366;SDS011;30086;57.660;12.000;2023-02-11T11:28:24;8.75;;;2.03;;
44366;SDS011;30086;57.660;12.000;2023-02-11T11:30:51;14.30;;;3.97;;
44366;SDS011;30086;57.660;12.000;2023-02-11T11:33:25;17.08;;;3.78;;
44366;SDS011;30086;57.660;12.000;2023-02-11T11:36:00;12.63;;;2.47;;
44366;SDS011;30086;57.660;12.000;2023-02-11T11:38:27;17.13;;;2.92;;
44366;SDS011;30086;57.660;12.000;2023-02-11T11:43:40;18.42;;;3.75;;
44366;SDS011;30086;57.660;12.000;2023-02-11T11:46:21;28.05;;;2.88;;
44366;SDS011;30086;57.660;12.000;2023-02-11T11:48:48;23.88;;;2.55;;
44366;SDS011;30086;57.660;12.000;2023-02-11T11:51:14;22.30;;;3.15;;
44366;SDS011;30086;57.660;12.000;2023-02-11T11:56:15;13.88;;;2.25;;
44366;SDS011;30086;57.660;12.000;2023-02-11T11:58:41;16.17;;;2.85;;
44366;SDS011;30086;57.660;12.000;2023-02-11T12:09:16;7.20;;;2.35;;
44366;SDS011;30086;57.660;12.000;2023-02-11T12:14:33;17.70;;;3.95;;
44366;SDS011;30086;57.660;12.000;2023-02-11T12:17:02;27.63;;;4.07;;
44366;SDS011;30086;57.660;12.000;2023-02-11T12:22:03;10.40;;;2.60;;
44366;SDS011;30086;57.660;12.000;2023-02-11T12:24:35;16.30;;;3.42;;
44366;SDS011;30086;57.660;12.000;2023-02-11T12:32:45;9.55;;;2.33;;
44366;SDS011;30086;57.660;12.000;2023-02-11T12:55:42;21.05;;;2.80;;
44366;SDS011;30086;57.660;12.000;2023-02-11T12:58:11;22.13;;;4.15;;
44366;SDS011;30086;57.660;12.000;2023-02-11T13:00:41;15.82;;;2.55;;
44366;SDS011;30086;57.660;12.000;2023-02-11T13:03:11;17.45;;;2.30;;
44366;SDS011;30086;57.660;12.000;2023-02-11T13:05:48;12.23;;;3.03;;
44366;SDS011;30086;57.660;12.000;2023-02-11T13:08:27;23.70;;;3.67;;
44366;SDS011;30086;57.660;12.000;2023-02-11T13:10:54;20.75;;;2.17;;
44366;SDS011;30086;57.660;12.000;2023-02-11T13:16:02;16.20;;;4.15;;
44366;SDS011;30086;57.660;12.000;2023-02-11T13:24:16;14.77;;;2.72;;
44366;SDS011;30086;57.660;12.000;2023-02-11T13:26:30;18.70;;;3.67;;
44366;SDS011;30086;57.660;12.000;2023-02-11T13:31:51;27.35;;;4.57;;
44366;SDS011;30086;57.660;12.000;2023-02-11T13:34:25;17.33;;;3.25;;
44366;SDS011;30086;57.660;12.000;2023-02-11T13:36:54;27.38;;;5.35;;
44366;SDS011;30086;57.660;12.000;2023-02-11T13:39:21;23.50;;;5.57;;
44366;SDS011;30086;57.660;12.000;2023-02-11T13:41:47;21.75;;;3.08;;
44366;SDS011;30086;57.660;12.000;2023-02-11T13:49:18;18.45;;;2.20;;
44366;SDS011;30086;57.660;12.000;2023-02-11T13:51:45;27.33;;;5.70;;
44366;SDS011;30086;57.660;12.000;2023-02-11T13:54:22;36.25;;;5.75;;
44366;SDS011;30086;57.660;12.000;2023-02-11T13:59:55;34.92;;;6.05;;
44366;SDS011;30086;57.660;12.000;2023-02-11T14:10:50;30.90;;;4.28;;
44366;SDS011;30086;57.660;12.000;2023-02-11T14:13:28;21.85;;;4.38;;
44366;SDS011;30086;57.660;12.000;2023-02-11T14:16:10;16.42;;;3.30;;
44366;SDS011;30086;57.660;12.000;2023-02-11T14:21:16;37.92;;;4.88;;
44366;SDS011;30086;57.660;12.000;2023-02-11T14:23:43;33.03;;;4.78;;
44366;SDS011;30086;57.660;12.000;2023-02-11T14:28:58;28.23;;;5.10;;
44366;SDS011;30086;57.660;12.000;2023-02-11T14:34:07;27.90;;;4.80;;
44366;SDS011;30086;57.660;12.000;2023-02-11T14:36:48;24.67;;;4.22;;
44366;SDS011;30086;57.660;12.000;2023-02-11T14:41:51;27.63;;;5.00;;
44366;SDS011;30086;57.660;12.000;2023-02-11T14:44:27;25.73;;;4.63;;
44366;SDS011;30086;57.660;12.000;2023-02-11T14:46:53;34.03;;;5.07;;
44366;SDS011;30086;57.660;12.000;2023-02-11T14:51:50;31.42;;;4.82;;
44366;SDS011;30086;57.660;12.000;2023-02-11T14:54:18;22.45;;;5.05;;
44366;SDS011;30086;57.660;12.000;2023-02-11T14:57:04;30.20;;;5.13;;
44366;SDS011;30086;57.660;12.000;2023-02-11T14:59:30;35.40;;;5.72;;
44366;SDS011;30086;57.660;12.000;2023-02-11T15:01:56;35.30;;;5.10;;
44366;SDS011;30086;57.660;12.000;2023-02-11T15:04:28;31.65;;;5.82;;
44366;SDS011;30086;57.660;12.000;2023-02-11T15:06:54;35.85;;;5.55;;
44366;SDS011;30086;57.660;12.000;2023-02-11T15:09:40;34.55;;;5.57;;
44366;SDS011;30086;57.660;12.000;2023-02-11T15:12:14;27.08;;;5.78;;
44366;SDS011;30086;57.660;12.000;2023-02-11T15:14:45;30.52;;;5.90;;
44366;SDS011;30086;57.660;12.000;2023-02-11T15:17:11;32.45;;;5.85;;
44366;SDS011;30086;57.660;12.000;2023-02-11T15:19:38;39.80;;;5.93;;
44366;SDS011;30086;57.660;12.000;2023-02-11T15:22:16;38.17;;;5.88;;
44366;SDS011;30086;57.660;12.000;2023-02-11T15:24:44;31.50;;;4.97;;
44366;SDS011;30086;57.660;12.000;2023-02-11T15:27:11;33.08;;;6.47;;
44366;SDS011;30086;57.660;12.000;2023-02-11T15:29:47;41.22;;;6.47;;
44366;SDS011;30086;57.660;12.000;2023-02-11T15:32:14;39.83;;;5.72;;
44366;SDS011;30086;57.660;12.000;2023-02-11T15:34:45;41.28;;;6.97;;
44366;SDS011;30086;57.660;12.000;2023-02-11T15:37:21;30.85;;;5.43;;
44366;SDS011;30086;57.660;12.000;2023-02-11T15:39:48;28.45;;;5.88;;
44366;SDS011;30086;57.660;12.000;2023-02-11T15:42:18;41.42;;;6.60;;
44366;SDS011;30086;57.660;12.000;2023-02-11T15:44:45;39.03;;;7.43;;
44366;SDS011;30086;57.660;12.000;2023-02-11T15:47:12;35.38;;;6.68;;
44366;SDS011;30086;57.660;12.000;2023-02-11T15:49:43;48.55;;;9.27;;
44366;SDS011;30086;57.660;12.000;2023-02-11T15:52:10;44.78;;;6.07;;
44366;SDS011;30086;57.660;12.000;2023-02-11T15:54:36;55.05;;;8.15;;
44366;SDS011;30086;57.660;12.000;2023-02-11T15:57:03;33.10;;;6.63;;
44366;SDS011;30086;57.660;12.000;2023-02-11T15:59:38;42.22;;;6.40;;
44366;SDS011;30086;57.660;12.000;2023-02-11T16:02:15;37.22;;;6.38;;
44366;SDS011;30086;57.660;12.000;2023-02-11T16:04:48;40.58;;;6.72;;
44366;SDS011;30086;57.660;12.000;2023-02-11T16:09:58;29.90;;;5.22;;
44366;SDS011;30086;57.660;12.000;2023-02-11T16:12:25;41.65;;;6.25;;
44366;SDS011;30086;57.660;12.000;2023-02-11T16:14:51;29.05;;;5.10;;
44366;SDS011;30086;57.660;12.000;2023-02-11T16:17:21;31.42;;;5.70;;
44366;SDS011;30086;57.660;12.000;2023-02-11T16:19:49;45.15;;;6.95;;
44366;SDS011;30086;57.660;12.000;2023-02-11T16:22:26;30.50;;;6.65;;
44366;SDS011;30086;57.660;12.000;2023-02-11T16:24:54;42.45;;;6.45;;
44366;SDS011;30086;57.660;12.000;2023-02-11T16:27:22;45.30;;;7.55;;
44366;SDS011;30086;57.660;12.000;2023-02-11T16:29:53;36.88;;;7.07;;
44366;SDS011;30086;57.660;12.000;2023-02-11T16:32:21;39.83;;;6.63;;
44366;SDS011;30086;57.660;12.000;2023-02-11T16:34:49;41.38;;;6.38;;
44366;SDS011;30086;57.660;12.000;2023-02-11T16:37:15;32.30;;;5.50;;
44366;SDS011;30086;57.660;12.000;2023-02-11T16:39:41;41.25;;;6.65;;
44366;SDS011;30086;57.660;12.000;2023-02-11T16:42:08;33.50;;;5.50;;
44366;SDS011;30086;57.660;12.000;2023-02-11T16:44:34;35.67;;;6.57;;
44366;SDS011;30086;57.660;12.000;2023-02-11T16:47:01;31.33;;;6.20;;
44366;SDS011;30086;57.660;12.000;2023-02-11T16:49:31;36.70;;;6.32;;
44366;SDS011;30086;57.660;12.000;2023-02-11T16:51:59;37.08;;;6.55;;
44366;SDS011;30086;57.660;12.000;2023-02-11T16:54:26;39.03;;;5.55;;
44366;SDS011;30086;57.660;12.000;2023-02-11T16:56:52;48.42;;;7.88;;
44366;SDS011;30086;57.660;12.000;2023-02-11T16:59:19;49.92;;;6.35;;
44366;SDS011;30086;57.660;12.000;2023-02-11T17:01:45;50.83;;;6.78;;
44366;SDS011;30086;57.660;12.000;2023-02-11T17:04:15;52.10;;;6.82;;
44366;SDS011;30086;57.660;12.000;2023-02-11T17:06:41;42.38;;;7.68;;
44366;SDS011;30086;57.660;12.000;2023-02-11T17:09:08;47.45;;;7.68;;
44366;SDS011;30086;57.660;12.000;2023-02-11T17:11:35;40.40;;;7.35;;
44366;SDS011;30086;57.660;12.000;2023-02-11T17:14:01;33.72;;;6.15;;
44366;SDS011;30086;57.660;12.000;2023-02-11T17:16:27;47.13;;;6.88;;
44366;SDS011;30086;57.660;12.000;2023-02-11T17:18:54;38.08;;;6.35;;